AIC241 VRMM-VOMM
Flight info
| Callsign | AIC241 |
|---|---|
| Flight time | 1h 37m |
| Altitude | 39000 |
| Route | PATLO1A PATLO R457 TEGUT DCT BUTLA |
| Aircraft | A20N/M-SDE2E3FGHIRWXY/LB1 |
Departure
| Time | 2026-04-23 16:47 |
|---|---|
| Airport | Velana International Airport (VRMM) |
Arrival
| Time | 2026-04-23 18:25 |
|---|---|
| Airport | Chennai International Airport (VOMM) |
| Time | Latitude | Longitude | Altitude | Speed | Heading |
|---|---|---|---|---|---|
| 2026-04-23 16:30 | 4.18767 | 73.52789 | 15 ft | 0 kts | 213° |
| 2026-04-23 16:39 | 4.18774 | 73.52793 | 15 ft | 2 kts | 212° |
| 2026-04-23 16:40 | 4.18788 | 73.52802 | 17 ft | 2 kts | 214° |
| 2026-04-23 16:40 | 4.18801 | 73.52812 | 17 ft | 2 kts | 218° |
| 2026-04-23 16:40 | 4.18814 | 73.52822 | 16 ft | 2 kts | 210° |
| 2026-04-23 16:40 | 4.18830 | 73.52826 | 17 ft | 2 kts | 181° |
| 2026-04-23 16:41 | 4.18839 | 73.52825 | 16 ft | 0 kts | 183° |
| 2026-04-23 16:43 | 4.18827 | 73.52832 | 18 ft | 5 kts | 147° |
| 2026-04-23 16:43 | 4.18817 | 73.52887 | 16 ft | 12 kts | 93° |
| 2026-04-23 16:44 | 4.18741 | 73.52922 | 16 ft | 15 kts | 179° |
| 2026-04-23 16:44 | 4.18626 | 73.52922 | 15 ft | 18 kts | 180° |
| 2026-04-23 16:44 | 4.18513 | 73.52927 | 14 ft | 14 kts | 178° |
| 2026-04-23 16:44 | 4.18439 | 73.52928 | 13 ft | 8 kts | 180° |
| 2026-04-23 16:45 | 4.18580 | 73.52928 | 16 ft | 1 kts | 178° |
| 2026-04-23 16:45 | 4.18558 | 73.52947 | 15 ft | 8 kts | 129° |
| 2026-04-23 16:45 | 4.18548 | 73.52984 | 14 ft | 0 kts | 88° |
| 2026-04-23 16:46 | 4.18549 | 73.53005 | 14 ft | 7 kts | 89° |
| 2026-04-23 16:46 | 4.18559 | 73.53083 | 16 ft | 15 kts | 56° |
| 2026-04-23 16:46 | 4.18673 | 73.53100 | 14 ft | 25 kts | 360° |
| 2026-04-23 16:47 | 4.19091 | 73.53099 | 15 ft | 94 kts | 359° |
| 2026-04-23 16:47 | 4.19941 | 73.53096 | 14 ft | 148 kts | 358° |
| 2026-04-23 16:47 | 4.21016 | 73.53067 | 455 ft | 152 kts | 356° |
| 2026-04-23 16:47 | 4.22127 | 73.53026 | 877 ft | 167 kts | 356° |
| 2026-04-23 16:48 | 4.23290 | 73.52998 | 1577 ft | 165 kts | 356° |
| 2026-04-23 16:48 | 4.24468 | 73.52986 | 2175 ft | 178 kts | 358° |
| 2026-04-23 16:48 | 4.25773 | 73.52983 | 2644 ft | 197 kts | 359° |
| 2026-04-23 16:48 | 4.27214 | 73.52988 | 3056 ft | 219 kts | 359° |
| 2026-04-23 16:49 | 4.28260 | 73.52994 | 3322 ft | 234 kts | 359° |
| 2026-04-23 16:49 | 4.30570 | 73.53008 | 4008 ft | 262 kts | 0° |
| 2026-04-23 16:49 | 4.32446 | 73.53020 | 4695 ft | 273 kts | 0° |
| 2026-04-23 16:49 | 4.34328 | 73.53031 | 5583 ft | 276 kts | 0° |
| 2026-04-23 16:50 | 4.36258 | 73.53043 | 6456 ft | 279 kts | 1° |
| 2026-04-23 16:50 | 4.38204 | 73.53053 | 7287 ft | 281 kts | 1° |
| 2026-04-23 16:50 | 4.40174 | 73.53066 | 8121 ft | 284 kts | 2° |
| 2026-04-23 16:50 | 4.42108 | 73.53452 | 8903 ft | 286 kts | 25° |
| 2026-04-23 16:51 | 4.43731 | 73.54597 | 9694 ft | 289 kts | 43° |
| 2026-04-23 16:51 | 4.45185 | 73.56007 | 10360 ft | 296 kts | 45° |
| 2026-04-23 16:51 | 4.46692 | 73.57528 | 10597 ft | 319 kts | 45° |
| 2026-04-23 16:51 | 4.48316 | 73.59151 | 10830 ft | 339 kts | 45° |
| 2026-04-23 16:52 | 4.50024 | 73.60824 | 11443 ft | 345 kts | 44° |
| 2026-04-23 16:52 | 4.51733 | 73.62478 | 12141 ft | 348 kts | 44° |
| 2026-04-23 16:52 | 4.53493 | 73.64170 | 12822 ft | 352 kts | 44° |
| 2026-04-23 16:52 | 4.55271 | 73.65876 | 13497 ft | 356 kts | 44° |
| 2026-04-23 16:53 | 4.57068 | 73.67601 | 14111 ft | 359 kts | 43° |
| 2026-04-23 16:53 | 4.58883 | 73.69342 | 14721 ft | 362 kts | 43° |
| 2026-04-23 16:53 | 4.60708 | 73.71094 | 15335 ft | 365 kts | 43° |
| 2026-04-23 16:53 | 4.62550 | 73.72863 | 15926 ft | 368 kts | 43° |
| 2026-04-23 16:54 | 4.64405 | 73.74644 | 16503 ft | 371 kts | 43° |
| 2026-04-23 16:54 | 4.66252 | 73.76417 | 17070 ft | 374 kts | 43° |
| 2026-04-23 16:54 | 4.68138 | 73.78229 | 17631 ft | 377 kts | 43° |
| 2026-04-23 16:54 | 4.70038 | 73.80054 | 18185 ft | 380 kts | 43° |
| 2026-04-23 16:55 | 4.71955 | 73.81895 | 18640 ft | 384 kts | 43° |
| 2026-04-23 16:55 | 4.73891 | 73.83754 | 19086 ft | 388 kts | 43° |
| 2026-04-23 16:55 | 4.75850 | 73.85636 | 19523 ft | 391 kts | 43° |
| 2026-04-23 16:55 | 4.77822 | 73.87530 | 19971 ft | 395 kts | 44° |
| 2026-04-23 16:56 | 4.79815 | 73.89444 | 20430 ft | 398 kts | 44° |
| 2026-04-23 16:56 | 4.81823 | 73.91375 | 20871 ft | 402 kts | 44° |
| 2026-04-23 16:56 | 4.83850 | 73.93322 | 21284 ft | 406 kts | 44° |
| 2026-04-23 16:56 | 4.85872 | 73.95265 | 21678 ft | 410 kts | 44° |
| 2026-04-23 16:57 | 4.87940 | 73.97253 | 22092 ft | 414 kts | 44° |
| 2026-04-23 16:57 | 4.90028 | 73.99260 | 22472 ft | 419 kts | 44° |
| 2026-04-23 16:57 | 4.92146 | 74.01295 | 22884 ft | 423 kts | 44° |
| 2026-04-23 16:57 | 4.93553 | 74.02648 | 23145 ft | 425 kts | 44° |
| 2026-04-23 16:58 | 4.96775 | 74.05745 | 23728 ft | 430 kts | 44° |
| 2026-04-23 16:58 | 4.98941 | 74.07827 | 24107 ft | 432 kts | 44° |
| 2026-04-23 16:58 | 5.01085 | 74.09889 | 24452 ft | 435 kts | 44° |
| 2026-04-23 16:58 | 5.03273 | 74.11992 | 24787 ft | 438 kts | 45° |
| 2026-04-23 16:59 | 5.05477 | 74.14111 | 25129 ft | 440 kts | 45° |
| 2026-04-23 16:59 | 5.06947 | 74.15525 | 25359 ft | 442 kts | 45° |
| 2026-04-23 16:59 | 5.09172 | 74.17665 | 25692 ft | 445 kts | 45° |
| 2026-04-23 16:59 | 5.11410 | 74.19817 | 26019 ft | 447 kts | 45° |
| 2026-04-23 17:00 | 5.14429 | 74.22721 | 26457 ft | 451 kts | 45° |
| 2026-04-23 17:00 | 5.15930 | 74.24165 | 26662 ft | 453 kts | 45° |
| 2026-04-23 17:00 | 5.18208 | 74.26357 | 26980 ft | 455 kts | 45° |
| 2026-04-23 17:00 | 5.21246 | 74.29281 | 27383 ft | 458 kts | 45° |
| 2026-04-23 17:01 | 5.22802 | 74.30778 | 27589 ft | 460 kts | 45° |
| 2026-04-23 17:01 | 5.25871 | 74.33732 | 27975 ft | 463 kts | 46° |
| 2026-04-23 17:01 | 5.27447 | 74.35249 | 28176 ft | 465 kts | 46° |
| 2026-04-23 17:01 | 5.29754 | 74.37471 | 28458 ft | 467 kts | 46° |
| 2026-04-23 17:02 | 5.32108 | 74.39738 | 28744 ft | 470 kts | 46° |
| 2026-04-23 17:02 | 5.34470 | 74.42012 | 29023 ft | 472 kts | 46° |
| 2026-04-23 17:02 | 5.36845 | 74.44300 | 29290 ft | 474 kts | 46° |
| 2026-04-23 17:02 | 5.39232 | 74.46599 | 29563 ft | 477 kts | 46° |
| 2026-04-23 17:03 | 5.41629 | 74.48909 | 29834 ft | 479 kts | 46° |
| 2026-04-23 17:03 | 5.44044 | 74.51221 | 30081 ft | 482 kts | 44° |
| 2026-04-23 17:03 | 5.46642 | 74.53369 | 30290 ft | 486 kts | 40° |
| 2026-04-23 17:03 | 5.49302 | 74.55470 | 30522 ft | 488 kts | 40° |
| 2026-04-23 17:04 | 5.51973 | 74.57587 | 30756 ft | 490 kts | 40° |
| 2026-04-23 17:04 | 5.54620 | 74.59689 | 30987 ft | 492 kts | 40° |
| 2026-04-23 17:04 | 5.57308 | 74.61824 | 31282 ft | 493 kts | 40° |
| 2026-04-23 17:04 | 5.59996 | 74.63959 | 31584 ft | 493 kts | 40° |
| 2026-04-23 17:05 | 5.62686 | 74.66097 | 31877 ft | 494 kts | 40° |
| 2026-04-23 17:05 | 5.65381 | 74.68237 | 32165 ft | 494 kts | 41° |
| 2026-04-23 17:05 | 5.68077 | 74.70379 | 32458 ft | 494 kts | 41° |
| 2026-04-23 17:05 | 5.70768 | 74.72517 | 32734 ft | 494 kts | 41° |
| 2026-04-23 17:06 | 5.73467 | 74.74663 | 33003 ft | 495 kts | 41° |
| 2026-04-23 17:06 | 5.76127 | 74.76776 | 33267 ft | 495 kts | 41° |
| 2026-04-23 17:06 | 5.78826 | 74.78922 | 33534 ft | 495 kts | 41° |
| 2026-04-23 17:06 | 5.81527 | 74.81070 | 33791 ft | 495 kts | 41° |
| 2026-04-23 17:07 | 5.84228 | 74.83217 | 34011 ft | 495 kts | 41° |
| 2026-04-23 17:07 | 5.86930 | 74.85366 | 34246 ft | 495 kts | 40° |
| 2026-04-23 17:07 | 5.89628 | 74.87512 | 34468 ft | 495 kts | 40° |
| 2026-04-23 17:07 | 5.92325 | 74.89658 | 34683 ft | 495 kts | 40° |
| 2026-04-23 17:08 | 5.95024 | 74.91805 | 34902 ft | 495 kts | 40° |
| 2026-04-23 17:08 | 5.97690 | 74.93927 | 35110 ft | 494 kts | 40° |
| 2026-04-23 17:08 | 6.00412 | 74.96094 | 35326 ft | 494 kts | 40° |
| 2026-04-23 17:08 | 6.03075 | 74.98205 | 35525 ft | 494 kts | 40° |
| 2026-04-23 17:09 | 6.05778 | 75.00339 | 35756 ft | 494 kts | 40° |
| 2026-04-23 17:09 | 6.08479 | 75.02469 | 35967 ft | 494 kts | 39° |
| 2026-04-23 17:09 | 6.11183 | 75.04603 | 36170 ft | 494 kts | 39° |
| 2026-04-23 17:09 | 6.13878 | 75.06730 | 36382 ft | 494 kts | 39° |
| 2026-04-23 17:10 | 6.16579 | 75.08863 | 36591 ft | 493 kts | 39° |
| 2026-04-23 17:10 | 6.19275 | 75.10994 | 36804 ft | 493 kts | 39° |
| 2026-04-23 17:10 | 6.21969 | 75.13122 | 37019 ft | 492 kts | 39° |
| 2026-04-23 17:10 | 6.24622 | 75.15219 | 37208 ft | 492 kts | 39° |
| 2026-04-23 17:11 | 6.27309 | 75.17343 | 37399 ft | 492 kts | 39° |
| 2026-04-23 17:11 | 6.30001 | 75.19472 | 37577 ft | 491 kts | 39° |
| 2026-04-23 17:11 | 6.32682 | 75.21592 | 37754 ft | 491 kts | 39° |
| 2026-04-23 17:11 | 6.35369 | 75.23717 | 37931 ft | 491 kts | 39° |
| 2026-04-23 17:12 | 6.38052 | 75.25838 | 38100 ft | 491 kts | 39° |
| 2026-04-23 17:12 | 6.40731 | 75.27957 | 38262 ft | 490 kts | 39° |
| 2026-04-23 17:12 | 6.43412 | 75.30078 | 38415 ft | 490 kts | 39° |
| 2026-04-23 17:12 | 6.46054 | 75.32168 | 38576 ft | 490 kts | 38° |
| 2026-04-23 17:13 | 6.48727 | 75.34283 | 38704 ft | 489 kts | 38° |
| 2026-04-23 17:13 | 6.51397 | 75.36396 | 38851 ft | 488 kts | 38° |
| 2026-04-23 17:13 | 6.56725 | 75.40613 | 38879 ft | 487 kts | 38° |
| 2026-04-23 17:14 | 6.62048 | 75.44827 | 38875 ft | 487 kts | 38° |
| 2026-04-23 17:14 | 6.67367 | 75.49039 | 38873 ft | 487 kts | 38° |
| 2026-04-23 17:15 | 6.72645 | 75.53220 | 38874 ft | 486 kts | 38° |
| 2026-04-23 17:15 | 6.77954 | 75.57427 | 38875 ft | 486 kts | 38° |
| 2026-04-23 17:16 | 6.83284 | 75.61651 | 38873 ft | 490 kts | 38° |
| 2026-04-23 17:16 | 6.88664 | 75.65917 | 38875 ft | 495 kts | 38° |
| 2026-04-23 17:17 | 6.94067 | 75.70201 | 38875 ft | 500 kts | 39° |
| 2026-04-23 17:17 | 6.99552 | 75.74553 | 38874 ft | 503 kts | 39° |
| 2026-04-23 17:18 | 7.07784 | 75.81086 | 38872 ft | 502 kts | 39° |
| 2026-04-23 17:19 | 7.13270 | 75.85440 | 38872 ft | 502 kts | 39° |
| 2026-04-23 17:19 | 7.18726 | 75.89772 | 38870 ft | 502 kts | 39° |
| 2026-04-23 17:20 | 7.24214 | 75.94132 | 38868 ft | 502 kts | 39° |
| 2026-04-23 17:21 | 7.35154 | 76.02823 | 38875 ft | 503 kts | 39° |
| 2026-04-23 17:21 | 7.43393 | 76.09374 | 38877 ft | 503 kts | 39° |
| 2026-04-23 17:22 | 7.51632 | 76.15930 | 38869 ft | 503 kts | 39° |
| 2026-04-23 17:23 | 7.59843 | 76.22466 | 38865 ft | 504 kts | 39° |
| 2026-04-23 17:24 | 7.68096 | 76.29039 | 38866 ft | 504 kts | 39° |
| 2026-04-23 17:24 | 7.76347 | 76.35613 | 38870 ft | 504 kts | 39° |
| 2026-04-23 17:25 | 7.84565 | 76.42165 | 38867 ft | 504 kts | 39° |
| 2026-04-23 17:26 | 7.95573 | 76.50947 | 38871 ft | 504 kts | 39° |
| 2026-04-23 17:27 | 8.03802 | 76.57515 | 38867 ft | 505 kts | 39° |
| 2026-04-23 17:27 | 8.09307 | 76.61911 | 38866 ft | 505 kts | 39° |
| 2026-04-23 17:28 | 8.14817 | 76.66313 | 38863 ft | 505 kts | 39° |
| 2026-04-23 17:28 | 8.20336 | 76.70724 | 38866 ft | 506 kts | 39° |
| 2026-04-23 17:29 | 8.25816 | 76.75105 | 38860 ft | 506 kts | 39° |
| 2026-04-23 17:30 | 8.34088 | 76.81720 | 38853 ft | 506 kts | 39° |
| 2026-04-23 17:30 | 8.42365 | 76.88344 | 38864 ft | 506 kts | 39° |
| 2026-04-23 17:31 | 8.47886 | 76.92763 | 38857 ft | 507 kts | 39° |
| 2026-04-23 17:31 | 8.53252 | 76.97301 | 38851 ft | 506 kts | 41° |
| 2026-04-23 17:32 | 8.58603 | 77.01933 | 38868 ft | 507 kts | 41° |
| 2026-04-23 17:32 | 8.63978 | 77.06549 | 38867 ft | 507 kts | 41° |
| 2026-04-23 17:33 | 8.69364 | 77.11161 | 38880 ft | 507 kts | 41° |
| 2026-04-23 17:33 | 8.74713 | 77.15739 | 38880 ft | 507 kts | 41° |
| 2026-04-23 17:34 | 8.80097 | 77.20352 | 38886 ft | 508 kts | 41° |
| 2026-04-23 17:35 | 8.88177 | 77.27276 | 38883 ft | 508 kts | 41° |
| 2026-04-23 17:35 | 8.96263 | 77.34210 | 38880 ft | 508 kts | 41° |
| 2026-04-23 17:36 | 9.01624 | 77.38810 | 38879 ft | 508 kts | 41° |
| 2026-04-23 17:36 | 9.07020 | 77.43442 | 38879 ft | 509 kts | 41° |
| 2026-04-23 17:37 | 9.12416 | 77.48075 | 38875 ft | 509 kts | 41° |
| 2026-04-23 17:38 | 9.20510 | 77.55030 | 38881 ft | 509 kts | 41° |
| 2026-04-23 17:38 | 9.25873 | 77.59645 | 38880 ft | 509 kts | 41° |
| 2026-04-23 17:39 | 9.31265 | 77.64287 | 38880 ft | 509 kts | 41° |
| 2026-04-23 17:39 | 9.36663 | 77.68936 | 38863 ft | 510 kts | 41° |
| 2026-04-23 17:40 | 9.42070 | 77.73594 | 38857 ft | 510 kts | 41° |
| 2026-04-23 17:40 | 9.47469 | 77.78248 | 38859 ft | 510 kts | 41° |
| 2026-04-23 17:41 | 9.52834 | 77.82874 | 38859 ft | 510 kts | 41° |
| 2026-04-23 17:41 | 9.60945 | 77.89872 | 38870 ft | 511 kts | 41° |
| 2026-04-23 17:42 | 9.69059 | 77.96876 | 38886 ft | 511 kts | 41° |
| 2026-04-23 17:43 | 9.74469 | 78.01549 | 38880 ft | 511 kts | 41° |
| 2026-04-23 17:43 | 9.79827 | 78.06179 | 38880 ft | 504 kts | 41° |
| 2026-04-23 17:43 | 9.82480 | 78.08444 | 38883 ft | 493 kts | 39° |
| 2026-04-23 17:44 | 9.85246 | 78.10471 | 38882 ft | 490 kts | 34° |
| 2026-04-23 17:44 | 9.93842 | 78.16258 | 38883 ft | 496 kts | 34° |
| 2026-04-23 17:45 | 10.02411 | 78.22054 | 38878 ft | 496 kts | 34° |
| 2026-04-23 17:46 | 10.11028 | 78.27881 | 38872 ft | 497 kts | 34° |
| 2026-04-23 17:46 | 10.16780 | 78.31772 | 38866 ft | 497 kts | 34° |
| 2026-04-23 17:47 | 10.22530 | 78.35664 | 38861 ft | 497 kts | 34° |
| 2026-04-23 17:48 | 10.31127 | 78.41486 | 38865 ft | 497 kts | 34° |
| 2026-04-23 17:48 | 10.36881 | 78.45385 | 38864 ft | 498 kts | 34° |
| 2026-04-23 17:49 | 10.42639 | 78.49289 | 38863 ft | 498 kts | 34° |
| 2026-04-23 17:49 | 10.48401 | 78.53197 | 38855 ft | 498 kts | 34° |
| 2026-04-23 17:50 | 10.54126 | 78.57081 | 38857 ft | 498 kts | 34° |
| 2026-04-23 17:50 | 10.62778 | 78.62955 | 38859 ft | 498 kts | 34° |
| 2026-04-23 17:51 | 10.68543 | 78.66872 | 38855 ft | 499 kts | 34° |
| 2026-04-23 17:52 | 10.77158 | 78.72727 | 38860 ft | 499 kts | 34° |
| 2026-04-23 17:52 | 10.85969 | 78.78369 | 38861 ft | 499 kts | 32° |
| 2026-04-23 17:53 | 10.94805 | 78.83974 | 38857 ft | 499 kts | 32° |
| 2026-04-23 17:54 | 11.00686 | 78.87729 | 38859 ft | 499 kts | 32° |
| 2026-04-23 17:54 | 11.09464 | 78.93338 | 38858 ft | 499 kts | 32° |
| 2026-04-23 17:55 | 11.18279 | 78.98975 | 38856 ft | 499 kts | 32° |
| 2026-04-23 17:56 | 11.24152 | 79.02733 | 38855 ft | 499 kts | 32° |
| 2026-04-23 17:56 | 11.32914 | 79.08342 | 38606 ft | 500 kts | 32° |
| 2026-04-23 17:57 | 11.35876 | 79.10239 | 38348 ft | 501 kts | 32° |
| 2026-04-23 17:57 | 11.38824 | 79.12128 | 38084 ft | 501 kts | 32° |
| 2026-04-23 17:57 | 11.44730 | 79.15913 | 37566 ft | 502 kts | 32° |
| 2026-04-23 17:58 | 11.47686 | 79.17808 | 37308 ft | 503 kts | 32° |
| 2026-04-23 17:58 | 11.50648 | 79.19708 | 37050 ft | 504 kts | 32° |
| 2026-04-23 17:58 | 11.53617 | 79.21612 | 36806 ft | 504 kts | 32° |
| 2026-04-23 17:58 | 11.56684 | 79.23365 | 36549 ft | 505 kts | 25° |
| 2026-04-23 17:59 | 11.59923 | 79.24746 | 36302 ft | 505 kts | 18° |
| 2026-04-23 17:59 | 11.63249 | 79.25745 | 35790 ft | 507 kts | 11° |
| 2026-04-23 17:59 | 11.66715 | 79.26448 | 35047 ft | 511 kts | 9° |
| 2026-04-23 17:59 | 11.70228 | 79.27136 | 34156 ft | 517 kts | 9° |
| 2026-04-23 18:00 | 11.73781 | 79.27839 | 33258 ft | 521 kts | 9° |
| 2026-04-23 18:00 | 11.77342 | 79.28549 | 32407 ft | 521 kts | 9° |
| 2026-04-23 18:00 | 11.80894 | 79.29259 | 31589 ft | 521 kts | 9° |
| 2026-04-23 18:00 | 11.84452 | 79.29970 | 30812 ft | 519 kts | 9° |
| 2026-04-23 18:01 | 11.87979 | 79.30674 | 30042 ft | 517 kts | 8° |
| 2026-04-23 18:01 | 11.91453 | 79.31367 | 29249 ft | 513 kts | 8° |
| 2026-04-23 18:01 | 11.94939 | 79.32063 | 28552 ft | 507 kts | 8° |
| 2026-04-23 18:01 | 11.98378 | 79.32749 | 27911 ft | 501 kts | 9° |
| 2026-04-23 18:02 | 12.01775 | 79.33426 | 27296 ft | 494 kts | 9° |
| 2026-04-23 18:02 | 12.05131 | 79.34096 | 26701 ft | 488 kts | 9° |
| 2026-04-23 18:02 | 12.08438 | 79.34757 | 26134 ft | 481 kts | 9° |
| 2026-04-23 18:02 | 12.11700 | 79.35408 | 25536 ft | 475 kts | 9° |
| 2026-04-23 18:03 | 12.14921 | 79.36051 | 24977 ft | 469 kts | 9° |
| 2026-04-23 18:03 | 12.18104 | 79.36687 | 24418 ft | 463 kts | 9° |
| 2026-04-23 18:03 | 12.21245 | 79.37314 | 23880 ft | 457 kts | 9° |
| 2026-04-23 18:03 | 12.24301 | 79.37925 | 23330 ft | 451 kts | 10° |
| 2026-04-23 18:04 | 12.27365 | 79.38538 | 22673 ft | 446 kts | 10° |
| 2026-04-23 18:04 | 12.30391 | 79.39143 | 22029 ft | 441 kts | 10° |
| 2026-04-23 18:04 | 12.33388 | 79.39742 | 21393 ft | 436 kts | 10° |
| 2026-04-23 18:04 | 12.36355 | 79.40335 | 20775 ft | 432 kts | 10° |
| 2026-04-23 18:05 | 12.39284 | 79.40921 | 20166 ft | 427 kts | 11° |
| 2026-04-23 18:05 | 12.42188 | 79.41502 | 19576 ft | 423 kts | 11° |
| 2026-04-23 18:05 | 12.45022 | 79.42068 | 19017 ft | 418 kts | 11° |
| 2026-04-23 18:05 | 12.47860 | 79.42635 | 18455 ft | 413 kts | 11° |
| 2026-04-23 18:06 | 12.50672 | 79.43198 | 17820 ft | 410 kts | 11° |
| 2026-04-23 18:06 | 12.53452 | 79.43755 | 17204 ft | 405 kts | 11° |
| 2026-04-23 18:06 | 12.56203 | 79.44307 | 16605 ft | 400 kts | 11° |
| 2026-04-23 18:06 | 12.58917 | 79.44851 | 16014 ft | 395 kts | 11° |
| 2026-04-23 18:07 | 12.61598 | 79.45389 | 15439 ft | 390 kts | 11° |
| 2026-04-23 18:07 | 12.64246 | 79.45920 | 14882 ft | 386 kts | 11° |
| 2026-04-23 18:07 | 12.66828 | 79.46438 | 14334 ft | 381 kts | 11° |
| 2026-04-23 18:07 | 12.69420 | 79.46958 | 13799 ft | 377 kts | 11° |
| 2026-04-23 18:08 | 12.71151 | 79.47305 | 13419 ft | 374 kts | 11° |
| 2026-04-23 18:08 | 12.74511 | 79.47978 | 12603 ft | 369 kts | 12° |
| 2026-04-23 18:08 | 12.77024 | 79.48482 | 11992 ft | 367 kts | 12° |
| 2026-04-23 18:08 | 12.79516 | 79.48981 | 11412 ft | 363 kts | 12° |
| 2026-04-23 18:09 | 12.81968 | 79.49555 | 10826 ft | 359 kts | 21° |
| 2026-04-23 18:09 | 12.84110 | 79.50790 | 10426 ft | 348 kts | 41° |
| 2026-04-23 18:09 | 12.85589 | 79.52623 | 10283 ft | 332 kts | 62° |
| 2026-04-23 18:09 | 12.86324 | 79.54801 | 10158 ft | 318 kts | 76° |
| 2026-04-23 18:10 | 12.86764 | 79.56955 | 10007 ft | 300 kts | 78° |
| 2026-04-23 18:10 | 12.87157 | 79.58994 | 9713 ft | 286 kts | 77° |
| 2026-04-23 18:10 | 12.87567 | 79.60965 | 9287 ft | 278 kts | 77° |
| 2026-04-23 18:10 | 12.87998 | 79.62881 | 9122 ft | 279 kts | 76° |
| 2026-04-23 18:11 | 12.88456 | 79.64826 | 8920 ft | 282 kts | 76° |
| 2026-04-23 18:11 | 12.88924 | 79.66769 | 8606 ft | 279 kts | 76° |
| 2026-04-23 18:11 | 12.89390 | 79.68689 | 8294 ft | 277 kts | 76° |
| 2026-04-23 18:11 | 12.89853 | 79.70592 | 7964 ft | 274 kts | 76° |
| 2026-04-23 18:12 | 12.90305 | 79.72450 | 7657 ft | 271 kts | 76° |
| 2026-04-23 18:12 | 12.90757 | 79.74313 | 7342 ft | 267 kts | 76° |
| 2026-04-23 18:12 | 12.91323 | 79.76133 | 7035 ft | 273 kts | 69° |
| 2026-04-23 18:12 | 12.92029 | 79.77970 | 6737 ft | 278 kts | 69° |
| 2026-04-23 18:13 | 12.92741 | 79.79799 | 6434 ft | 274 kts | 69° |
| 2026-04-23 18:13 | 12.93447 | 79.81606 | 6135 ft | 272 kts | 69° |
| 2026-04-23 18:13 | 12.94147 | 79.83415 | 5815 ft | 273 kts | 70° |
| 2026-04-23 18:13 | 12.94831 | 79.85222 | 5503 ft | 271 kts | 70° |
| 2026-04-23 18:14 | 12.95501 | 79.86996 | 5200 ft | 271 kts | 70° |
| 2026-04-23 18:14 | 12.96182 | 79.88795 | 4886 ft | 270 kts | 70° |
| 2026-04-23 18:14 | 12.96859 | 79.90585 | 4547 ft | 268 kts | 70° |
| 2026-04-23 18:14 | 12.97532 | 79.92364 | 4214 ft | 267 kts | 71° |
| 2026-04-23 18:15 | 12.98208 | 79.94156 | 3898 ft | 270 kts | 70° |
| 2026-04-23 18:15 | 12.98885 | 79.95946 | 3576 ft | 268 kts | 70° |
| 2026-04-23 18:15 | 12.99557 | 79.97727 | 3266 ft | 269 kts | 70° |
| 2026-04-23 18:15 | 13.00236 | 79.99524 | 2950 ft | 270 kts | 70° |
| 2026-04-23 18:16 | 13.00904 | 80.01290 | 2636 ft | 269 kts | 70° |
| 2026-04-23 18:16 | 13.01522 | 80.02928 | 2343 ft | 270 kts | 70° |
| 2026-04-23 18:16 | 13.02203 | 80.04727 | 2029 ft | 270 kts | 71° |
| 2026-04-23 18:17 | 13.03546 | 80.08282 | 1806 ft | 269 kts | 71° |
| 2026-04-23 18:17 | 13.04219 | 80.10064 | 1795 ft | 267 kts | 71° |
| 2026-04-23 18:17 | 13.04889 | 80.11842 | 1799 ft | 268 kts | 71° |
| 2026-04-23 18:17 | 13.05559 | 80.13620 | 1798 ft | 267 kts | 71° |
| 2026-04-23 18:18 | 13.06221 | 80.15376 | 1803 ft | 269 kts | 71° |
| 2026-04-23 18:18 | 13.06912 | 80.17212 | 1803 ft | 292 kts | 71° |
| 2026-04-23 18:18 | 13.07665 | 80.19215 | 1800 ft | 301 kts | 71° |
| 2026-04-23 18:18 | 13.08390 | 80.21132 | 1796 ft | 276 kts | 71° |
| 2026-04-23 18:19 | 13.09058 | 80.22893 | 1796 ft | 252 kts | 71° |
| 2026-04-23 18:19 | 13.09666 | 80.24496 | 1794 ft | 231 kts | 71° |
| 2026-04-23 18:19 | 13.10235 | 80.25998 | 1804 ft | 229 kts | 72° |
| 2026-04-23 18:19 | 13.10812 | 80.27524 | 1804 ft | 226 kts | 72° |
| 2026-04-23 18:20 | 13.11362 | 80.28977 | 1798 ft | 211 kts | 72° |
| 2026-04-23 18:20 | 13.11717 | 80.30365 | 1800 ft | 197 kts | 96° |
| 2026-04-23 18:20 | 13.11327 | 80.31666 | 1792 ft | 190 kts | 130° |
| 2026-04-23 18:20 | 13.10286 | 80.32417 | 1801 ft | 190 kts | 167° |
| 2026-04-23 18:21 | 13.08976 | 80.32327 | 1805 ft | 191 kts | 201° |
| 2026-04-23 18:21 | 13.07824 | 80.31631 | 1801 ft | 192 kts | 215° |
| 2026-04-23 18:21 | 13.06811 | 80.30735 | 1799 ft | 194 kts | 221° |
| 2026-04-23 18:21 | 13.05839 | 80.29790 | 1795 ft | 191 kts | 221° |
| 2026-04-23 18:22 | 13.04870 | 80.28854 | 1803 ft | 194 kts | 220° |
| 2026-04-23 18:22 | 13.03870 | 80.27919 | 1798 ft | 194 kts | 220° |
| 2026-04-23 18:22 | 13.02915 | 80.26976 | 1781 ft | 194 kts | 230° |
| 2026-04-23 18:22 | 13.02291 | 80.25735 | 1598 ft | 196 kts | 246° |
| 2026-04-23 18:23 | 13.01979 | 80.24855 | 1422 ft | 193 kts | 247° |
| 2026-04-23 18:23 | 13.00998 | 80.22140 | 919 ft | 152 kts | 245° |
| 2026-04-23 18:24 | 13.00294 | 80.20281 | 413 ft | 134 kts | 246° |
| 2026-04-23 18:24 | 12.99964 | 80.19419 | 211 ft | 124 kts | 246° |
| 2026-04-23 18:24 | 12.99639 | 80.18538 | 123 ft | 136 kts | 246° |
| 2026-04-23 18:25 | 12.99108 | 80.17147 | 54 ft | 53 kts | 247° |
| 2026-04-23 18:25 | 12.99034 | 80.16936 | 52 ft | 26 kts | 250° |
| 2026-04-23 18:25 | 12.98964 | 80.16752 | 52 ft | 29 kts | 244° |
| 2026-04-23 18:25 | 12.98891 | 80.16561 | 51 ft | 29 kts | 248° |
| 2026-04-23 18:26 | 12.98819 | 80.16428 | 50 ft | 21 kts | 233° |
| 2026-04-23 18:26 | 12.98720 | 80.16336 | 54 ft | 4 kts | 218° |
| 2026-04-23 18:26 | 12.98694 | 80.16315 | 55 ft | 7 kts | 218° |
| 2026-04-23 18:26 | 12.98648 | 80.16276 | 54 ft | 10 kts | 221° |
| 2026-04-23 18:27 | 12.98584 | 80.16222 | 51 ft | 13 kts | 219° |
| 2026-04-23 18:27 | 12.98532 | 80.16138 | 50 ft | 15 kts | 250° |
| 2026-04-23 18:27 | 12.98490 | 80.16026 | 52 ft | 18 kts | 248° |
| 2026-04-23 18:27 | 12.98441 | 80.15898 | 53 ft | 21 kts | 249° |
| 2026-04-23 18:28 | 12.98391 | 80.15767 | 50 ft | 19 kts | 248° |
| 2026-04-23 18:28 | 12.98354 | 80.15730 | 53 ft | 2 kts | 169° |
| 2026-04-23 18:28 | 12.98337 | 80.15747 | 53 ft | 5 kts | 118° |
| 2026-04-23 18:28 | 12.98323 | 80.15790 | 51 ft | 8 kts | 109° |
| 2026-04-23 18:29 | 12.98303 | 80.15856 | 53 ft | 11 kts | 112° |
| 2026-04-23 18:29 | 12.98241 | 80.15907 | 53 ft | 13 kts | 164° |
| 2026-04-23 18:29 | 12.98191 | 80.15922 | 53 ft | 1 kts | 161° |
| 2026-04-23 18:29 | 12.98189 | 80.15923 | 53 ft | 0 kts | 161° |
| 2026-04-23 18:30 | 12.98187 | 80.15924 | 53 ft | 0 kts | 161° |